sensor_id;sensor_type;location;lat;lon;timestamp;pressure;altitude;pressure_sealevel;temperature;humidity
73594;BME280;64760;53.404;23.498;2023-02-01T00:00:05;98008.72;;;-0.05;94.71
73594;BME280;64760;53.404;23.498;2023-02-01T00:06:18;97992.22;;;0.02;94.86
73594;BME280;64760;53.404;23.498;2023-02-01T00:08:44;97996.84;;;-0.01;94.95
73594;BME280;64760;53.404;23.498;2023-02-01T00:14:14;97977.94;;;-0.04;94.73
73594;BME280;64760;53.404;23.498;2023-02-01T00:16:40;97972.31;;;-0.01;94.78
73594;BME280;64760;53.404;23.498;2023-02-01T00:19:10;97959.78;;;0.01;95.19
73594;BME280;64760;53.404;23.498;2023-02-01T00:21:37;97958.50;;;-0.03;95.01
73594;BME280;64760;53.404;23.498;2023-02-01T00:24:04;97968.44;;;-0.13;95.22
73594;BME280;64760;53.404;23.498;2023-02-01T00:26:32;97951.63;;;-0.04;95.88
73594;BME280;64760;53.404;23.498;2023-02-01T00:29:00;97951.25;;;-0.01;95.52
73594;BME280;64760;53.404;23.498;2023-02-01T00:31:27;97937.44;;;-0.03;95.50
73594;BME280;64760;53.404;23.498;2023-02-01T00:33:54;97939.06;;;-0.02;95.46
73594;BME280;64760;53.404;23.498;2023-02-01T00:36:22;97934.94;;;0.04;95.80
73594;BME280;64760;53.404;23.498;2023-02-01T00:38:49;97941.88;;;-0.04;96.20
73594;BME280;64760;53.404;23.498;2023-02-01T00:41:17;97935.81;;;-0.04;95.96
73594;BME280;64760;53.404;23.498;2023-02-01T00:43:55;97930.88;;;-0.07;96.34
73594;BME280;64760;53.404;23.498;2023-02-01T00:46:21;97920.69;;;-0.10;96.62
73594;BME280;64760;53.404;23.498;2023-02-01T00:48:49;97917.13;;;0.06;96.62
73594;BME280;64760;53.404;23.498;2023-02-01T00:51:19;97916.25;;;0.13;96.81
73594;BME280;64760;53.404;23.498;2023-02-01T00:53:46;97913.50;;;0.07;96.63
73594;BME280;64760;53.404;23.498;2023-02-01T00:56:14;97913.88;;;0.04;96.89
73594;BME280;64760;53.404;23.498;2023-02-01T00:58:41;97907.63;;;-0.04;96.29
73594;BME280;64760;53.404;23.498;2023-02-01T01:01:12;97895.97;;;-0.01;96.47
73594;BME280;64760;53.404;23.498;2023-02-01T01:03:41;97906.75;;;0.04;96.86
73594;BME280;64760;53.404;23.498;2023-02-01T01:06:10;97895.28;;;-0.03;96.74
73594;BME280;64760;53.404;23.498;2023-02-01T01:08:37;97890.50;;;0.00;97.11
73594;BME280;64760;53.404;23.498;2023-02-01T01:11:10;97878.81;;;0.03;97.03
73594;BME280;64760;53.404;23.498;2023-02-01T01:13:37;97883.25;;;0.03;97.15
73594;BME280;64760;53.404;23.498;2023-02-01T01:16:05;97873.91;;;0.00;96.97
73594;BME280;64760;53.404;23.498;2023-02-01T01:18:33;97868.28;;;0.03;97.25
73594;BME280;64760;53.404;23.498;2023-02-01T01:21:00;97870.72;;;0.05;97.36
73594;BME280;64760;53.404;23.498;2023-02-01T01:23:27;97873.03;;;0.08;97.21
73594;BME280;64760;53.404;23.498;2023-02-01T01:25:53;97869.66;;;0.14;96.95
73594;BME280;64760;53.404;23.498;2023-02-01T01:28:20;97872.31;;;0.14;96.95
73594;BME280;64760;53.404;23.498;2023-02-01T01:30:46;97848.50;;;0.07;96.84
73594;BME280;64760;53.404;23.498;2023-02-01T01:33:14;97847.31;;;0.10;96.89
73594;BME280;64760;53.404;23.498;2023-02-01T01:35:41;97850.78;;;0.10;96.71
73594;BME280;64760;53.404;23.498;2023-02-01T01:38:10;97849.94;;;0.10;97.00
73594;BME280;64760;53.404;23.498;2023-02-01T01:40:37;97839.50;;;0.16;96.41
73594;BME280;64760;53.404;23.498;2023-02-01T01:43:13;97843.69;;;0.11;96.50
73594;BME280;64760;53.404;23.498;2023-02-01T01:45:41;97840.34;;;0.17;96.82
73594;BME280;64760;53.404;23.498;2023-02-01T01:48:15;97827.53;;;0.14;96.91
73594;BME280;64760;53.404;23.498;2023-02-01T01:51:04;97838.72;;;0.16;96.49
73594;BME280;64760;53.404;23.498;2023-02-01T01:53:58;97841.34;;;0.16;96.49
73594;BME280;64760;53.404;23.498;2023-02-01T01:56:28;97823.06;;;0.14;96.91
73594;BME280;64760;53.404;23.498;2023-02-01T01:58:56;97817.56;;;0.24;96.31
73594;BME280;64760;53.404;23.498;2023-02-01T02:01:22;97823.75;;;0.31;96.24
73594;BME280;64760;53.404;23.498;2023-02-01T02:03:50;97817.75;;;0.22;96.48
73594;BME280;64760;53.404;23.498;2023-02-01T02:08:59;97811.19;;;0.18;96.36
73594;BME280;64760;53.404;23.498;2023-02-01T02:11:25;97813.69;;;0.34;96.53
73594;BME280;64760;53.404;23.498;2023-02-01T02:13:53;97805.84;;;0.26;95.85
73594;BME280;64760;53.404;23.498;2023-02-01T02:17:30;97812.00;;;0.19;96.24
73594;BME280;64760;53.404;23.498;2023-02-01T02:19:36;97813.59;;;0.28;96.35
73594;BME280;64760;53.404;23.498;2023-02-01T02:48:02;97813.97;;;0.39;96.09
73594;BME280;64760;53.404;23.498;2023-02-01T02:50:38;97821.97;;;0.46;96.35
73594;BME280;64760;53.404;23.498;2023-02-01T02:53:48;97819.16;;;0.47;95.77
73594;BME280;64760;53.404;23.498;2023-02-01T02:56:37;97815.41;;;0.57;96.17
73594;BME280;64760;53.404;23.498;2023-02-01T02:59:25;97810.13;;;0.42;95.90
73594;BME280;64760;53.404;23.498;2023-02-01T03:02:12;97826.78;;;0.57;95.73
73594;BME280;64760;53.404;23.498;2023-02-01T03:04:58;97820.81;;;0.63;95.89
73594;BME280;64760;53.404;23.498;2023-02-01T03:12:50;97819.34;;;0.90;95.36
73594;BME280;64760;53.404;23.498;2023-02-01T03:15:51;97819.31;;;1.05;95.03
73594;BME280;64760;53.404;23.498;2023-02-01T03:18:26;97824.44;;;1.06;94.64
73594;BME280;64760;53.404;23.498;2023-02-01T03:20:55;97823.28;;;0.79;94.43
73594;BME280;64760;53.404;23.498;2023-02-01T03:23:28;97832.72;;;0.88;94.76
73594;BME280;64760;53.404;23.498;2023-02-01T03:25:58;97828.69;;;0.92;94.42
73594;BME280;64760;53.404;23.498;2023-02-01T03:28:26;97830.44;;;1.00;93.99
73594;BME280;64760;53.404;23.498;2023-02-01T03:30:55;97817.25;;;1.00;94.50
73594;BME280;64760;53.404;23.498;2023-02-01T03:33:23;97841.91;;;0.78;94.36
73594;BME280;64760;53.404;23.498;2023-02-01T03:38:49;97844.81;;;0.83;94.77
73594;BME280;64760;53.404;23.498;2023-02-01T03:46:52;97826.50;;;0.96;94.59
73594;BME280;64760;53.404;23.498;2023-02-01T03:49:26;97832.38;;;0.91;94.97
73594;BME280;64760;53.404;23.498;2023-02-01T03:51:54;97827.72;;;0.79;94.76
73594;BME280;64760;53.404;23.498;2023-02-01T03:54:22;97838.34;;;0.85;94.80
73594;BME280;64760;53.404;23.498;2023-02-01T03:56:50;97830.34;;;1.23;94.32
73594;BME280;64760;53.404;23.498;2023-02-01T03:59:16;97829.88;;;1.05;94.49
73594;BME280;64760;53.404;23.498;2023-02-01T04:01:43;97822.25;;;1.10;94.04
73594;BME280;64760;53.404;23.498;2023-02-01T04:04:09;97811.41;;;1.05;94.26
73594;BME280;64760;53.404;23.498;2023-02-01T04:06:39;97813.31;;;0.96;93.56
73594;BME280;64760;53.404;23.498;2023-02-01T04:09:05;97815.97;;;1.11;93.35
73594;BME280;64760;53.404;23.498;2023-02-01T04:11:31;97825.44;;;0.90;92.88
73594;BME280;64760;53.404;23.498;2023-02-01T04:13:57;97839.50;;;1.12;92.74
73594;BME280;64760;53.404;23.498;2023-02-01T04:16:24;97828.53;;;1.23;92.80
73594;BME280;64760;53.404;23.498;2023-02-01T04:18:50;97828.66;;;1.36;91.93
73594;BME280;64760;53.404;23.498;2023-02-01T04:21:17;97836.31;;;1.31;92.03
73594;BME280;64760;53.404;23.498;2023-02-01T04:23:43;97842.06;;;1.20;92.40
73594;BME280;64760;53.404;23.498;2023-02-01T04:26:09;97828.16;;;1.26;92.38
73594;BME280;64760;53.404;23.498;2023-02-01T04:28:35;97850.25;;;1.25;91.78
73594;BME280;64760;53.404;23.498;2023-02-01T04:31:02;97859.81;;;1.12;92.34
73594;BME280;64760;53.404;23.498;2023-02-01T04:33:28;97842.22;;;1.33;91.25
73594;BME280;64760;53.404;23.498;2023-02-01T04:35:54;97837.53;;;1.14;91.00
73594;BME280;64760;53.404;23.498;2023-02-01T04:38:21;97833.78;;;1.23;91.29
73594;BME280;64760;53.404;23.498;2023-02-01T04:40:48;97841.88;;;1.22;91.57
73594;BME280;64760;53.404;23.498;2023-02-01T04:43:15;97793.91;;;1.33;90.91
73594;BME280;64760;53.404;23.498;2023-02-01T04:45:47;97853.31;;;1.43;90.70
73594;BME280;64760;53.404;23.498;2023-02-01T04:48:13;97834.03;;;1.28;90.89
73594;BME280;64760;53.404;23.498;2023-02-01T04:50:41;97828.31;;;1.25;91.12
73594;BME280;64760;53.404;23.498;2023-02-01T04:53:07;97847.72;;;1.17;91.32
73594;BME280;64760;53.404;23.498;2023-02-01T04:55:33;97841.84;;;1.36;90.89
73594;BME280;64760;53.404;23.498;2023-02-01T04:57:59;97833.63;;;1.10;91.19
73594;BME280;64760;53.404;23.498;2023-02-01T05:00:26;97832.88;;;1.02;91.71
73594;BME280;64760;53.404;23.498;2023-02-01T05:02:52;97828.88;;;1.06;91.56
73594;BME280;64760;53.404;23.498;2023-02-01T05:05:19;97845.75;;;1.40;91.36
73594;BME280;64760;53.404;23.498;2023-02-01T05:07:46;97840.34;;;1.27;90.86
73594;BME280;64760;53.404;23.498;2023-02-01T05:10:12;97844.44;;;1.15;91.46
73594;BME280;64760;53.404;23.498;2023-02-01T05:12:39;97847.44;;;1.12;91.47
73594;BME280;64760;53.404;23.498;2023-02-01T05:15:24;97840.34;;;1.13;91.43
73594;BME280;64760;53.404;23.498;2023-02-01T05:17:50;97848.09;;;1.14;91.42
73594;BME280;64760;53.404;23.498;2023-02-01T05:20:16;97844.78;;;1.12;91.58
73594;BME280;64760;53.404;23.498;2023-02-01T05:22:42;97852.81;;;1.19;91.03
73594;BME280;64760;53.404;23.498;2023-02-01T05:25:09;97837.09;;;1.11;90.72
73594;BME280;64760;53.404;23.498;2023-02-01T05:27:38;97844.81;;;0.98;91.45
73594;BME280;64760;53.404;23.498;2023-02-01T05:30:05;97837.97;;;1.18;91.33
73594;BME280;64760;53.404;23.498;2023-02-01T05:32:32;97838.78;;;1.04;91.72
73594;BME280;64760;53.404;23.498;2023-02-01T05:34:58;97844.78;;;1.12;92.09
73594;BME280;64760;53.404;23.498;2023-02-01T05:37:25;97861.16;;;1.08;91.98
73594;BME280;64760;53.404;23.498;2023-02-01T05:39:52;97852.53;;;1.14;92.22
73594;BME280;64760;53.404;23.498;2023-02-01T05:42:18;97852.66;;;0.91;92.92
73594;BME280;64760;53.404;23.498;2023-02-01T05:44:45;97857.63;;;1.01;93.04
73594;BME280;64760;53.404;23.498;2023-02-01T05:47:11;97849.91;;;0.99;93.19
73594;BME280;64760;53.404;23.498;2023-02-01T05:49:38;97846.97;;;0.65;93.85
73594;BME280;64760;53.404;23.498;2023-02-01T05:52:04;97845.59;;;0.54;93.72
73594;BME280;64760;53.404;23.498;2023-02-01T05:54:31;97860.22;;;0.57;94.53
73594;BME280;64760;53.404;23.498;2023-02-01T05:56:57;97856.59;;;0.58;94.77
73594;BME280;64760;53.404;23.498;2023-02-01T05:59:23;97849.59;;;0.50;95.18
73594;BME280;64760;53.404;23.498;2023-02-01T06:01:49;97855.75;;;0.42;95.18
73594;BME280;64760;53.404;23.498;2023-02-01T06:04:16;97865.41;;;0.50;95.89
73594;BME280;64760;53.404;23.498;2023-02-01T06:06:42;97861.94;;;0.50;95.81
73594;BME280;64760;53.404;23.498;2023-02-01T06:09:08;97869.16;;;0.56;95.43
73594;BME280;64760;53.404;23.498;2023-02-01T06:11:34;97869.63;;;0.59;95.94
73594;BME280;64760;53.404;23.498;2023-02-01T06:14:01;97868.63;;;0.75;95.36
73594;BME280;64760;53.404;23.498;2023-02-01T06:16:27;97858.16;;;0.67;95.34
73594;BME280;64760;53.404;23.498;2023-02-01T06:18:53;97862.91;;;0.86;94.99
73594;BME280;64760;53.404;23.498;2023-02-01T06:21:20;97875.72;;;0.89;94.05
73594;BME280;64760;53.404;23.498;2023-02-01T06:23:53;97869.16;;;0.85;93.96
73594;BME280;64760;53.404;23.498;2023-02-01T06:26:19;97872.81;;;1.13;93.49
73594;BME280;64760;53.404;23.498;2023-02-01T06:28:46;97857.38;;;1.10;93.87
73594;BME280;64760;53.404;23.498;2023-02-01T06:31:12;97863.72;;;1.01;93.40
73594;BME280;64760;53.404;23.498;2023-02-01T06:33:39;97863.53;;;0.88;93.90
73594;BME280;64760;53.404;23.498;2023-02-01T06:36:07;97860.09;;;1.02;93.82
73594;BME280;64760;53.404;23.498;2023-02-01T06:38:35;97862.72;;;1.17;93.59
73594;BME280;64760;53.404;23.498;2023-02-01T06:41:02;97863.00;;;1.07;93.37
73594;BME280;64760;53.404;23.498;2023-02-01T06:43:30;97859.72;;;1.05;93.68
73594;BME280;64760;53.404;23.498;2023-02-01T06:46:04;97861.75;;;1.03;94.13
73594;BME280;64760;53.404;23.498;2023-02-01T06:48:32;97865.09;;;0.97;94.14
73594;BME280;64760;53.404;23.498;2023-02-01T06:50:58;97871.81;;;1.14;93.75
73594;BME280;64760;53.404;23.498;2023-02-01T06:53:24;97871.56;;;0.94;93.81
73594;BME280;64760;53.404;23.498;2023-02-01T06:56:02;97869.09;;;0.93;94.19
73594;BME280;64760;53.404;23.498;2023-02-01T06:58:31;97864.81;;;0.92;93.87
73594;BME280;64760;53.404;23.498;2023-02-01T07:00:58;97874.66;;;0.98;94.52
73594;BME280;64760;53.404;23.498;2023-02-01T07:03:25;97882.47;;;0.91;94.31
73594;BME280;64760;53.404;23.498;2023-02-01T07:05:55;97868.56;;;0.83;94.61
73594;BME280;64760;53.404;23.498;2023-02-01T07:08:26;97861.47;;;0.83;94.20
73594;BME280;64760;53.404;23.498;2023-02-01T07:10:52;97873.38;;;0.94;94.34
73594;BME280;64760;53.404;23.498;2023-02-01T07:13:19;97876.09;;;1.01;94.44
73594;BME280;64760;53.404;23.498;2023-02-01T07:15:45;97878.84;;;1.07;93.91
73594;BME280;64760;53.404;23.498;2023-02-01T07:18:15;97873.53;;;1.22;94.05
73594;BME280;64760;53.404;23.498;2023-02-01T07:20:41;97875.91;;;1.17;93.38
73594;BME280;64760;53.404;23.498;2023-02-01T07:23:10;97881.38;;;1.15;93.43
73594;BME280;64760;53.404;23.498;2023-02-01T07:25:36;97887.72;;;1.35;93.22
73594;BME280;64760;53.404;23.498;2023-02-01T07:28:04;97888.84;;;1.26;92.87
73594;BME280;64760;53.404;23.498;2023-02-01T07:30:30;97887.88;;;1.49;92.83
73594;BME280;64760;53.404;23.498;2023-02-01T07:32:56;97894.75;;;1.43;92.47
73594;BME280;64760;53.404;23.498;2023-02-01T07:35:29;97880.28;;;1.24;92.07
73594;BME280;64760;53.404;23.498;2023-02-01T07:37:59;97896.81;;;1.33;92.48
73594;BME280;64760;53.404;23.498;2023-02-01T07:40:25;97883.97;;;1.45;92.16
73594;BME280;64760;53.404;23.498;2023-02-01T07:42:55;97888.84;;;1.26;92.17
73594;BME280;64760;53.404;23.498;2023-02-01T07:45:22;97894.16;;;1.48;92.43
73594;BME280;64760;53.404;23.498;2023-02-01T07:47:51;97891.63;;;1.54;92.59
73594;BME280;64760;53.404;23.498;2023-02-01T07:50:19;97891.03;;;1.73;91.72
73594;BME280;64760;53.404;23.498;2023-02-01T07:52:45;97886.63;;;1.45;91.29
73594;BME280;64760;53.404;23.498;2023-02-01T07:55:11;97883.88;;;1.53;91.60
73594;BME280;64760;53.404;23.498;2023-02-01T07:57:39;97888.13;;;1.68;91.36
73594;BME280;64760;53.404;23.498;2023-02-01T08:00:05;97880.19;;;1.47;92.01
73594;BME280;64760;53.404;23.498;2023-02-01T08:02:50;97878.97;;;1.50;91.86
73594;BME280;64760;53.404;23.498;2023-02-01T08:05:16;97873.41;;;1.59;91.84
73594;BME280;64760;53.404;23.498;2023-02-01T08:07:43;97864.28;;;1.62;92.03
73594;BME280;64760;53.404;23.498;2023-02-01T08:10:09;97866.22;;;1.53;91.88
73594;BME280;64760;53.404;23.498;2023-02-01T08:12:38;97871.31;;;1.55;91.86
73594;BME280;64760;53.404;23.498;2023-02-01T08:15:04;97868.47;;;1.71;91.72
73594;BME280;64760;53.404;23.498;2023-02-01T08:17:32;97872.88;;;1.85;91.79
73594;BME280;64760;53.404;23.498;2023-02-01T08:19:58;97874.09;;;1.68;92.06
73594;BME280;64760;53.404;23.498;2023-02-01T08:22:25;97870.94;;;1.58;91.85
73594;BME280;64760;53.404;23.498;2023-02-01T08:24:51;97880.34;;;1.46;92.45
73594;BME280;64760;53.404;23.498;2023-02-01T08:27:17;97877.13;;;1.65;92.18
73594;BME280;64760;53.404;23.498;2023-02-01T08:29:44;97878.13;;;1.64;92.06
73594;BME280;64760;53.404;23.498;2023-02-01T08:32:10;97888.53;;;1.51;92.28
73594;BME280;64760;53.404;23.498;2023-02-01T08:34:37;97888.06;;;1.62;92.33
73594;BME280;64760;53.404;23.498;2023-02-01T08:37:03;97887.84;;;1.78;91.64
73594;BME280;64760;53.404;23.498;2023-02-01T08:39:29;97880.66;;;1.72;91.34
73594;BME280;64760;53.404;23.498;2023-02-01T08:41:57;97892.69;;;1.60;91.30
73594;BME280;64760;53.404;23.498;2023-02-01T08:44:41;97874.06;;;1.47;91.33
73594;BME280;64760;53.404;23.498;2023-02-01T08:47:08;97876.66;;;1.61;91.17
73594;BME280;64760;53.404;23.498;2023-02-01T08:49:34;97879.53;;;1.45;91.53
73594;BME280;64760;53.404;23.498;2023-02-01T08:52:01;97883.56;;;1.77;90.84
73594;BME280;64760;53.404;23.498;2023-02-01T08:54:27;97868.00;;;1.67;90.76
73594;BME280;64760;53.404;23.498;2023-02-01T08:56:55;97879.34;;;1.82;90.13
73594;BME280;64760;53.404;23.498;2023-02-01T08:59:22;97871.56;;;1.74;90.29
73594;BME280;64760;53.404;23.498;2023-02-01T09:01:48;97880.91;;;1.77;90.46
73594;BME280;64760;53.404;23.498;2023-02-01T09:04:15;97880.31;;;1.96;90.20
73594;BME280;64760;53.404;23.498;2023-02-01T09:06:41;97878.53;;;1.82;89.90
73594;BME280;64760;53.404;23.498;2023-02-01T09:09:08;97877.44;;;1.76;90.32
73594;BME280;64760;53.404;23.498;2023-02-01T09:19:02;97877.03;;;1.94;90.39
73594;BME280;64760;53.404;23.498;2023-02-01T09:21:29;97882.78;;;1.62;90.83
73594;BME280;64760;53.404;23.498;2023-02-01T09:23:59;97868.16;;;1.80;90.01
73594;BME280;64760;53.404;23.498;2023-02-01T09:26:26;97862.31;;;2.83;91.90
73594;BME280;64760;53.404;23.498;2023-02-01T09:28:52;97856.59;;;2.24;89.40
73594;BME280;64760;53.404;23.498;2023-02-01T09:31:19;97866.47;;;2.15;89.07
73594;BME280;64760;53.404;23.498;2023-02-01T09:33:46;97869.63;;;2.04;89.06
73594;BME280;64760;53.404;23.498;2023-02-01T09:36:12;97856.09;;;1.93;89.65
73594;BME280;64760;53.404;23.498;2023-02-01T09:38:38;97866.72;;;1.78;90.04
73594;BME280;64760;53.404;23.498;2023-02-01T09:41:15;97870.78;;;1.80;90.62
73594;BME280;64760;53.404;23.498;2023-02-01T09:43:54;97876.22;;;1.94;90.16
73594;BME280;64760;53.404;23.498;2023-02-01T09:46:26;97867.44;;;1.72;90.04
73594;BME280;64760;53.404;23.498;2023-02-01T09:48:55;97857.41;;;1.82;89.98
73594;BME280;64760;53.404;23.498;2023-02-01T09:51:42;97851.69;;;1.78;90.44
73594;BME280;64760;53.404;23.498;2023-02-01T09:54:21;97845.34;;;1.94;91.17
73594;BME280;64760;53.404;23.498;2023-02-01T09:57:09;97855.38;;;1.84;90.52
73594;BME280;64760;53.404;23.498;2023-02-01T09:59:54;97842.06;;;1.92;90.19
73594;BME280;64760;53.404;23.498;2023-02-01T10:02:25;97846.84;;;1.82;90.11
73594;BME280;64760;53.404;23.498;2023-02-01T10:04:57;97848.59;;;1.96;89.72
73594;BME280;64760;53.404;23.498;2023-02-01T10:07:58;97837.22;;;1.96;90.27
73594;BME280;64760;53.404;23.498;2023-02-01T10:10:31;97853.41;;;1.71;90.35
73594;BME280;64760;53.404;23.498;2023-02-01T10:15:49;97850.72;;;1.65;91.26
73594;BME280;64760;53.404;23.498;2023-02-01T10:26:19;97838.50;;;1.42;92.09
73594;BME280;64760;53.404;23.498;2023-02-01T10:28:52;97846.63;;;1.26;92.50
73594;BME280;64760;53.404;23.498;2023-02-01T10:31:23;97842.97;;;1.27;92.88
73594;BME280;64760;53.404;23.498;2023-02-01T10:34:01;97842.59;;;1.30;93.48
73594;BME280;64760;53.404;23.498;2023-02-01T10:36:41;97834.03;;;1.28;93.24
73594;BME280;64760;53.404;23.498;2023-02-01T10:39:10;97829.13;;;1.25;93.86
73594;BME280;64760;53.404;23.498;2023-02-01T10:41:39;97841.47;;;1.39;93.79
73594;BME280;64760;53.404;23.498;2023-02-01T10:44:13;97841.31;;;1.41;93.62
73594;BME280;64760;53.404;23.498;2023-02-01T10:46:40;97845.38;;;1.58;93.57
73594;BME280;64760;53.404;23.498;2023-02-01T10:49:18;97829.03;;;1.33;93.51
73594;BME280;64760;53.404;23.498;2023-02-01T10:51:51;97836.06;;;1.26;93.71
73594;BME280;64760;53.404;23.498;2023-02-01T10:54:20;97819.84;;;1.29;93.85
73594;BME280;64760;53.404;23.498;2023-02-01T10:56:49;97823.00;;;1.39;93.82
73594;BME280;64760;53.404;23.498;2023-02-01T10:59:23;97828.16;;;1.48;94.20
73594;BME280;64760;53.404;23.498;2023-02-01T11:01:58;97826.00;;;1.51;93.89
73594;BME280;64760;53.404;23.498;2023-02-01T11:04:25;97823.09;;;1.46;93.71
73594;BME280;64760;53.404;23.498;2023-02-01T11:07:08;97820.47;;;1.67;93.77
73594;BME280;64760;53.404;23.498;2023-02-01T11:09:40;97819.59;;;1.81;93.30
73594;BME280;64760;53.404;23.498;2023-02-01T11:12:20;97821.31;;;1.89;93.22
73594;BME280;64760;53.404;23.498;2023-02-01T11:14:49;97811.38;;;1.91;93.30
73594;BME280;64760;53.404;23.498;2023-02-01T11:17:24;97818.06;;;1.87;93.07
73594;BME280;64760;53.404;23.498;2023-02-01T11:20:08;97806.00;;;1.84;92.82
73594;BME280;64760;53.404;23.498;2023-02-01T11:22:47;97801.94;;;1.82;93.32
73594;BME280;64760;53.404;23.498;2023-02-01T11:25:16;97802.31;;;1.79;92.68
73594;BME280;64760;53.404;23.498;2023-02-01T11:27:44;97819.03;;;1.86;93.25
73594;BME280;64760;53.404;23.498;2023-02-01T11:30:16;97782.31;;;1.91;92.81
73594;BME280;64760;53.404;23.498;2023-02-01T11:32:46;97796.41;;;1.77;92.50
73594;BME280;64760;53.404;23.498;2023-02-01T11:35:19;97809.09;;;1.88;92.58
73594;BME280;64760;53.404;23.498;2023-02-01T11:37:55;97812.88;;;2.00;91.97
73594;BME280;64760;53.404;23.498;2023-02-01T11:40:35;97796.78;;;1.74;92.75
73594;BME280;64760;53.404;23.498;2023-02-01T11:43:23;97806.16;;;1.98;92.53
73594;BME280;64760;53.404;23.498;2023-02-01T11:46:16;97815.50;;;2.00;91.99
73594;BME280;64760;53.404;23.498;2023-02-01T11:48:46;97807.97;;;1.97;92.64
73594;BME280;64760;53.404;23.498;2023-02-01T11:51:44;97817.16;;;2.22;91.87
73594;BME280;64760;53.404;23.498;2023-02-01T11:54:35;97807.28;;;2.10;92.03
73594;BME280;64760;53.404;23.498;2023-02-01T12:08:42;97799.91;;;1.84;92.68
73594;BME280;64760;53.404;23.498;2023-02-01T12:17:00;97810.25;;;1.79;93.07
73594;BME280;64760;53.404;23.498;2023-02-01T12:22:44;97802.06;;;1.74;92.70
73594;BME280;64760;53.404;23.498;2023-02-01T12:31:10;97799.31;;;1.82;92.76
73594;BME280;64760;53.404;23.498;2023-02-01T12:34:13;97810.88;;;2.02;92.42
73594;BME280;64760;53.404;23.498;2023-02-01T12:39:45;97808.78;;;1.98;92.09
73594;BME280;64760;53.404;23.498;2023-02-01T12:42:28;97795.31;;;1.93;91.88
73594;BME280;64760;53.404;23.498;2023-02-01T12:47:47;97809.63;;;1.98;92.25
73594;BME280;64760;53.404;23.498;2023-02-01T12:50:28;97814.47;;;1.95;92.06
73594;BME280;64760;53.404;23.498;2023-02-01T12:53:11;97811.75;;;2.09;92.59
73594;BME280;64760;53.404;23.498;2023-02-01T12:55:45;97806.09;;;1.91;91.66
73594;BME280;64760;53.404;23.498;2023-02-01T12:58:24;97818.03;;;2.08;92.15
73594;BME280;64760;53.404;23.498;2023-02-01T13:00:59;97819.91;;;2.14;91.12
73594;BME280;64760;53.404;23.498;2023-02-01T13:03:34;97817.41;;;2.06;91.17
73594;BME280;64760;53.404;23.498;2023-02-01T13:06:10;97806.47;;;2.09;91.03
73594;BME280;64760;53.404;23.498;2023-02-01T13:09:00;97815.38;;;2.29;90.57
73594;BME280;64760;53.404;23.498;2023-02-01T13:11:34;97822.53;;;2.35;90.19
73594;BME280;64760;53.404;23.498;2023-02-01T13:17:09;97808.13;;;2.38;89.93
73594;BME280;64760;53.404;23.498;2023-02-01T13:19:56;97832.28;;;2.63;89.61
73594;BME280;64760;53.404;23.498;2023-02-01T13:25:12;97821.75;;;2.69;88.75
73594;BME280;64760;53.404;23.498;2023-02-01T13:27:42;97819.41;;;2.53;88.44
73594;BME280;64760;53.404;23.498;2023-02-01T13:44:15;97830.16;;;2.52;88.22
73594;BME280;64760;53.404;23.498;2023-02-01T13:46:46;97857.53;;;2.38;87.95
73594;BME280;64760;53.404;23.498;2023-02-01T13:49:26;97854.03;;;2.58;87.88
73594;BME280;64760;53.404;23.498;2023-02-01T13:51:56;97867.88;;;2.60;87.26
73594;BME280;64760;53.404;23.498;2023-02-01T13:56:53;97863.16;;;2.56;87.31
73594;BME280;64760;53.404;23.498;2023-02-01T14:05:10;97863.50;;;2.46;87.69
73594;BME280;64760;53.404;23.498;2023-02-01T14:21:19;97876.63;;;2.61;87.13
73594;BME280;64760;53.404;23.498;2023-02-01T14:26:23;97895.31;;;2.59;86.37
73594;BME280;64760;53.404;23.498;2023-02-01T14:31:33;97883.25;;;2.50;86.75
73594;BME280;64760;53.404;23.498;2023-02-01T14:34:04;97887.72;;;2.50;86.43
73594;BME280;64760;53.404;23.498;2023-02-01T14:36:47;97870.19;;;2.42;86.73
73594;BME280;64760;53.404;23.498;2023-02-01T14:39:25;97880.81;;;2.27;86.77
73594;BME280;64760;53.404;23.498;2023-02-01T14:41:59;97885.34;;;2.33;86.67
73594;BME280;64760;53.404;23.498;2023-02-01T14:44:28;97889.88;;;2.40;86.91
73594;BME280;64760;53.404;23.498;2023-02-01T14:52:41;97890.75;;;2.25;86.10
73594;BME280;64760;53.404;23.498;2023-02-01T14:55:21;97882.13;;;2.38;86.00
73594;BME280;64760;53.404;23.498;2023-02-01T14:57:53;97892.47;;;2.33;86.36
73594;BME280;64760;53.404;23.498;2023-02-01T15:00:25;97903.38;;;2.51;86.66
73594;BME280;64760;53.404;23.498;2023-02-01T15:02:54;97900.66;;;2.38;86.33
73594;BME280;64760;53.404;23.498;2023-02-01T15:05:31;97901.00;;;2.35;87.03
73594;BME280;64760;53.404;23.498;2023-02-01T15:08:04;97906.13;;;2.36;87.39
73594;BME280;64760;53.404;23.498;2023-02-01T15:10:33;97906.75;;;2.39;87.50
73594;BME280;64760;53.404;23.498;2023-02-01T15:13:18;97902.78;;;2.28;87.14
73594;BME280;64760;53.404;23.498;2023-02-01T15:15:44;97911.78;;;2.33;87.68
73594;BME280;64760;53.404;23.498;2023-02-01T15:18:16;97912.34;;;2.29;87.93
73594;BME280;64760;53.404;23.498;2023-02-01T15:20:56;97907.94;;;2.36;88.25
73594;BME280;64760;53.404;23.498;2023-02-01T15:23:25;97921.38;;;2.34;87.71
73594;BME280;64760;53.404;23.498;2023-02-01T15:25:51;97917.91;;;2.34;88.05
73594;BME280;64760;53.404;23.498;2023-02-01T15:28:18;97915.59;;;2.31;88.21
73594;BME280;64760;53.404;23.498;2023-02-01T15:30:58;97922.22;;;2.42;88.63
73594;BME280;64760;53.404;23.498;2023-02-01T15:33:30;97927.25;;;2.36;88.53
73594;BME280;64760;53.404;23.498;2023-02-01T15:41:08;97942.09;;;2.16;89.04
73594;BME280;64760;53.404;23.498;2023-02-01T15:43:48;97926.75;;;2.05;89.80
73594;BME280;64760;53.404;23.498;2023-02-01T15:46:22;97927.41;;;1.93;89.84
73594;BME280;64760;53.404;23.498;2023-02-01T15:48:51;97939.31;;;2.03;89.81
73594;BME280;64760;53.404;23.498;2023-02-01T15:51:21;97939.41;;;2.10;90.02
73594;BME280;64760;53.404;23.498;2023-02-01T15:53:58;97924.16;;;1.91;90.60
73594;BME280;64760;53.404;23.498;2023-02-01T15:56:34;97928.72;;;1.82;91.09